Time;durP1;ratioP1;P1;durP2;ratioP2;P2;SDS_P1;SDS_P2;PMS_P1;PMS_P2;Temp;Humidity;BMP_temperature;BMP_pressure;BME280_temperature;BME280_humidity;BME280_pressure;Samples;Min_cycle;Max_cycle;Signal;HPM_P1;HPM_P2
2022/06/04 00:00:46;;;;;;;11.05;6.68;;;12.10;99.90;;;;;;5034154;28;20041;-63
2022/06/04 00:03:11;;;;;;;10.90;6.47;;;12.20;99.90;;;;;;5034207;28;20060;-63
2022/06/04 00:05:40;;;;;;;7.93;6.00;;;12.00;99.90;;;;;;5041612;28;20042;-63
2022/06/04 00:08:08;;;;;;;13.57;6.70;;;12.10;99.90;;;;;;5014253;28;20120;-63
2022/06/04 00:16:16;;;;;;;7.82;6.25;;;12.00;99.90;;;;;;5051699;28;20399;-63
2022/06/04 00:18:42;;;;;;;9.98;6.07;;;11.90;99.90;;;;;;5028420;28;20598;-63
2022/06/04 00:21:10;;;;;;;8.48;6.20;;;12.00;99.90;;;;;;5022016;28;20457;-63
2022/06/04 00:23:36;;;;;;;13.75;6.07;;;11.90;99.90;;;;;;5014366;28;20038;-63
2022/06/04 00:26:04;;;;;;;9.73;6.00;;;12.00;99.90;;;;;;5014294;28;20446;-63
2022/06/04 00:28:30;;;;;;;7.63;5.50;;;11.90;99.90;;;;;;5031736;28;20095;-63
2022/06/04 00:30:57;;;;;;;9.35;6.05;;;12.00;99.90;;;;;;5031592;28;20049;-63
2022/06/04 00:33:23;;;;;;;9.23;5.43;;;11.80;99.90;;;;;;5031853;28;20038;-63
2022/06/04 00:35:52;;;;;;;10.38;5.35;;;11.70;99.90;;;;;;5031911;28;20041;-63
2022/06/04 00:38:20;;;;;;;12.23;7.03;;;11.80;99.90;;;;;;5014300;28;20045;-63
2022/06/04 00:40:46;;;;;;;13.95;6.22;;;;;;;;;;5033819;28;20390;-63
2022/06/04 00:43:12;;;;;;;8.15;5.60;;;11.80;99.90;;;;;;5039709;28;20034;-63
2022/06/04 00:45:56;;;;;;;12.38;6.70;;;11.80;99.90;;;;;;5017785;28;20237;-63
2022/06/04 00:48:23;;;;;;;9.55;6.35;;;;;;;;;;5021204;28;20052;-63
2022/06/04 00:50:48;;;;;;;12.68;6.95;;;11.70;99.90;;;;;;5054185;28;20040;-63
2022/06/04 00:53:14;;;;;;;9.75;7.05;;;11.70;99.90;;;;;;5045019;28;20036;-63
2022/06/04 00:55:49;;;;;;;10.63;6.45;;;11.60;99.90;;;;;;5037526;28;20081;-63
2022/06/04 00:58:33;;;;;;;12.68;6.20;;;11.60;99.90;;;;;;5031796;28;20033;-63
2022/06/04 01:01:10;;;;;;;14.25;6.93;;;11.60;99.90;;;;;;5049394;28;20518;-63
2022/06/04 01:03:47;;;;;;;13.23;6.53;;;11.50;99.90;;;;;;5055694;28;20072;-62
2022/06/04 01:06:13;;;;;;;11.45;6.53;;;;;;;;;;5053907;28;20179;-62
2022/06/04 01:09:11;;;;;;;12.13;6.82;;;11.60;99.90;;;;;;5024998;28;20132;-62
2022/06/04 01:12:15;;;;;;;15.77;7.28;;;11.40;99.90;;;;;;5033678;28;20549;-62
2022/06/04 01:15:04;;;;;;;12.30;6.53;;;11.50;99.90;;;;;;5035401;28;20099;-62
2022/06/04 01:17:44;;;;;;;14.77;6.63;;;11.60;99.90;;;;;;5008128;28;20472;-62
2022/06/04 01:20:21;;;;;;;10.50;6.63;;;11.50;99.90;;;;;;5050766;28;20069;-62
2022/06/04 01:23:14;;;;;;;12.32;6.78;;;11.40;99.90;;;;;;5016931;28;20057;-62
2022/06/04 01:26:18;;;;;;;17.50;7.05;;;11.40;99.90;;;;;;5037423;28;20552;-62
2022/06/04 01:28:50;;;;;;;13.35;7.20;;;11.50;99.90;;;;;;5032455;28;20087;-62
2022/06/04 01:31:27;;;;;;;13.57;6.78;;;11.70;99.90;;;;;;5000519;28;20061;-62
2022/06/04 01:33:59;;;;;;;18.23;6.88;;;11.60;99.90;;;;;;5022067;28;20040;-62
2022/06/04 01:36:34;;;;;;;13.02;6.90;;;11.60;99.90;;;;;;5054672;28;20056;-62
2022/06/04 01:39:06;;;;;;;;;;;11.60;99.90;;;;;;5018044;28;20116;-62
2022/06/04 01:41:34;;;;;;;13.48;6.75;;;11.50;99.90;;;;;;5034248;28;19928;-63
2022/06/04 01:44:05;;;;;;;12.48;6.60;;;11.60;99.90;;;;;;5048698;28;20434;-63
2022/06/04 01:46:40;;;;;;;15.48;6.70;;;11.40;99.90;;;;;;5028001;28;20072;-63
2022/06/04 01:49:26;;;;;;;10.88;6.53;;;11.60;99.90;;;;;;5050282;28;20492;-62
2022/06/04 01:51:56;;;;;;;16.02;7.78;;;11.60;99.90;;;;;;5016353;28;20495;-63
2022/06/04 01:54:34;;;;;;;13.38;6.93;;;11.50;99.90;;;;;;5032012;28;20049;-63
2022/06/04 01:57:07;;;;;;;13.90;7.05;;;11.50;99.90;;;;;;5036142;28;20491;-63
2022/06/04 01:59:46;;;;;;;16.90;7.78;;;11.50;99.90;;;;;;5037079;28;20395;-63
2022/06/04 02:02:16;;;;;;;15.07;7.22;;;11.50;99.90;;;;;;5018908;28;20080;-63
2022/06/04 02:04:47;;;;;;;14.15;9.23;;;11.50;99.90;;;;;;5036538;28;20051;-63
2022/06/04 02:07:36;;;;;;;13.13;7.65;;;11.50;99.90;;;;;;5036273;28;20090;-63
2022/06/04 02:10:15;;;;;;;14.13;7.57;;;11.60;99.90;;;;;;5036072;28;20084;-63
2022/06/04 02:12:44;;;;;;;18.30;8.10;;;11.40;99.90;;;;;;5036122;28;20407;-63
2022/06/04 02:15:14;;;;;;;17.33;8.43;;;11.40;99.90;;;;;;5036062;28;20039;-63
2022/06/04 02:17:44;;;;;;;14.32;8.07;;;11.30;99.90;;;;;;5019918;28;20044;-63
2022/06/04 02:20:11;;;;;;;13.50;8.88;;;11.40;99.90;;;;;;5036410;28;20124;-63
2022/06/04 02:22:37;;;;;;;16.88;8.48;;;11.20;99.90;;;;;;5035918;28;20037;-63
2022/06/04 02:25:06;;;;;;;15.57;8.80;;;11.40;99.90;;;;;;5035815;28;20041;-64
2022/06/04 02:27:32;;;;;;;14.23;8.35;;;;;;;;;;5036010;28;20375;-64
2022/06/04 02:29:58;;;;;;;14.10;9.23;;;;;;;;;;5036020;28;20041;-63
2022/06/04 02:32:34;;;;;;;14.85;9.07;;;11.30;99.90;;;;;;5036034;28;20068;-64
2022/06/04 02:35:10;;;;;;;19.73;9.23;;;11.30;99.90;;;;;;5035684;28;20047;-64
2022/06/04 02:37:47;;;;;;;16.90;9.10;;;11.00;99.90;;;;;;5018049;28;20124;-65
2022/06/04 02:41:02;;;;;;;17.58;9.23;;;11.30;99.90;;;;;;5035424;28;20051;-63
2022/06/04 02:43:44;;;;;;;16.05;8.95;;;11.20;99.90;;;;;;5044495;28;20053;-64
2022/06/04 02:46:14;;;;;;;16.00;8.80;;;11.20;99.90;;;;;;5035425;28;20076;-63
2022/06/04 02:48:44;;;;;;;17.88;8.13;;;11.20;99.90;;;;;;5035777;28;20037;-63
2022/06/04 02:51:19;;;;;;;17.38;9.07;;;11.10;99.90;;;;;;5035957;28;20029;-63
2022/06/04 02:53:45;;;;;;;;;;;11.00;99.90;;;;;;5036076;28;20045;-63
2022/06/04 02:56:19;;;;;;;13.57;8.38;;;10.80;99.90;;;;;;5035151;28;19970;-63
2022/06/04 02:58:50;;;;;;;13.10;8.45;;;11.10;99.90;;;;;;5018645;28;20048;-63
2022/06/04 03:01:17;;;;;;;15.60;9.13;;;11.40;99.90;;;;;;5005483;28;20047;-63
2022/06/04 03:03:43;;;;;;;15.32;8.32;;;11.10;99.90;;;;;;5035525;28;20044;-63
2022/06/04 03:06:32;;;;;;;15.35;8.23;;;11.10;99.90;;;;;;5034909;28;20534;-64
2022/06/04 03:09:00;;;;;;;15.27;9.45;;;11.10;99.90;;;;;;5052852;28;20052;-63
2022/06/04 03:11:26;;;;;;;18.30;8.20;;;;;;;;;;5034343;28;20051;-63
2022/06/04 03:13:52;;;;;;;18.90;8.77;;;11.00;99.90;;;;;;5035147;28;20395;-63
2022/06/04 03:16:18;;;;;;;16.40;9.02;;;10.90;99.90;;;;;;5034847;28;20167;-63
2022/06/04 03:18:44;;;;;;;22.25;8.70;;;11.00;99.90;;;;;;5034858;28;20033;-62
2022/06/04 03:21:10;;;;;;;22.50;9.35;;;11.00;99.90;;;;;;5034639;28;20041;-63
2022/06/04 03:23:37;;;;;;;21.35;8.82;;;10.90;99.90;;;;;;5052543;28;20033;-63
2022/06/04 03:26:03;;;;;;;14.93;8.63;;;10.80;99.90;;;;;;5018195;28;20123;-63
2022/06/04 03:28:29;;;;;;;16.52;9.00;;;;;;;;;;5034602;28;20052;-63
2022/06/04 03:30:56;;;;;;;18.85;8.63;;;;;;;;;;5052275;28;20042;-63
2022/06/04 03:33:21;;;;;;;17.50;8.20;;;10.80;99.90;;;;;;5052566;28;20402;-63
2022/06/04 03:35:47;;;;;;;16.88;9.63;;;10.80;99.90;;;;;;5034561;28;20120;-62
2022/06/04 03:38:13;;;;;;;13.13;8.63;;;;;;;;;;5034292;28;20056;-63
2022/06/04 03:40:39;;;;;;;15.40;8.35;;;;;;;;;;5034677;28;20052;-63
2022/06/04 03:43:05;;;;;;;18.98;8.50;;;;;;;;;;5018101;28;20110;-63
2022/06/04 03:45:31;;;;;;;15.65;8.18;;;11.00;99.90;;;;;;5048156;28;20040;-63
2022/06/04 03:47:58;;;;;;;12.05;8.20;;;11.00;99.90;;;;;;5026517;28;20037;-63
2022/06/04 03:50:29;;;;;;;19.75;9.20;;;11.00;99.90;;;;;;5052446;28;20083;-63
2022/06/04 03:52:55;;;;;;;16.50;8.98;;;10.80;99.90;;;;;;5033935;28;20052;-63
2022/06/04 03:55:21;;;;;;;16.02;7.82;;;11.00;99.90;;;;;;5051669;28;20041;-63
2022/06/04 03:57:48;;;;;;;13.70;7.32;;;10.90;99.90;;;;;;5050700;28;20178;-62
2022/06/04 04:00:37;;;;;;;15.68;7.25;;;11.20;99.90;;;;;;5052294;28;20076;-62
2022/06/04 04:03:20;;;;;;;21.23;8.15;;;11.10;99.90;;;;;;5038677;28;20067;-62
2022/06/04 04:05:52;;;;;;;14.75;8.07;;;11.10;99.90;;;;;;5033919;28;20041;-62
2022/06/04 04:08:19;;;;;;;13.55;7.63;;;11.10;99.90;;;;;;5033272;28;20094;-63
2022/06/04 04:10:46;;;;;;;12.88;7.32;;;11.20;99.90;;;;;;5026782;28;20080;-63
2022/06/04 04:13:13;;;;;;;12.00;6.32;;;11.20;99.90;;;;;;5050964;28;20036;-63
2022/06/04 04:15:40;;;;;;;14.00;6.82;;;;;;;;;;5051036;28;20111;-63
2022/06/04 04:18:06;;;;;;;18.48;7.65;;;11.30;99.90;;;;;;5050439;28;20045;-64
2022/06/04 04:20:37;;;;;;;13.68;6.60;;;11.30;99.90;;;;;;5050814;28;20045;-63
2022/06/04 04:23:05;;;;;;;9.65;5.97;;;11.30;99.90;;;;;;5032790;28;20037;-64
2022/06/04 04:25:32;;;;;;;10.88;5.43;;;11.30;99.90;;;;;;5051741;28;20037;-65
2022/06/04 04:27:59;;;;;;;9.07;6.28;;;11.40;99.90;;;;;;5051650;28;20119;-64
2022/06/04 04:30:29;;;;;;;10.82;5.57;;;11.50;99.90;;;;;;5051606;28;20029;-65
2022/06/04 04:32:55;;;;;;;15.77;6.15;;;11.40;99.90;;;;;;5051729;28;20041;-64
2022/06/04 04:35:24;;;;;;;11.27;5.95;;;11.60;99.90;;;;;;5034202;28;20029;-64
2022/06/04 04:37:51;;;;;;;10.80;6.50;;;11.60;99.90;;;;;;5051722;28;20395;-63
2022/06/04 04:40:18;;;;;;;9.65;5.75;;;11.60;99.90;;;;;;5034136;28;20076;-64
2022/06/04 04:42:44;;;;;;;7.85;4.75;;;;;;;;;;5051630;28;20068;-64
2022/06/04 04:45:11;;;;;;;9.55;5.07;;;11.80;99.90;;;;;;5051511;28;20545;-64
2022/06/04 04:47:39;;;;;;;10.00;5.60;;;11.90;99.90;;;;;;5041121;28;20029;-64
2022/06/04 04:50:08;;;;;;;10.82;5.72;;;11.90;99.90;;;;;;5033474;28;20055;-64
2022/06/04 04:52:34;;;;;;;9.25;4.75;;;12.20;99.90;;;;;;5033686;28;20442;-64
2022/06/04 04:55:00;;;;;;;8.05;5.38;;;12.40;99.90;;;;;;5051579;28;20041;-64
2022/06/04 04:57:25;;;;;;;9.50;4.88;;;12.60;99.90;;;;;;5037336;28;20048;-64
2022/06/04 04:59:51;;;;;;;7.38;4.47;;;12.90;99.90;;;;;;5033960;28;20099;-65
2022/06/04 05:02:17;;;;;;;9.18;4.70;;;;;;;;;;5033416;28;20083;-64
2022/06/04 05:04:42;;;;;;;5.80;3.60;;;13.40;99.90;;;;;;5037609;28;20037;-65
2022/06/04 05:07:11;;;;;;;8.15;3.97;;;13.80;99.90;;;;;;5051727;28;20120;-65
2022/06/04 05:09:39;;;;;;;7.00;3.83;;;14.50;99.90;;;;;;5033524;28;20083;-65
2022/06/04 05:12:08;;;;;;;6.93;3.30;;;14.90;99.90;;;;;;5033403;28;20565;-65
2022/06/04 05:14:36;;;;;;;7.38;3.75;;;15.40;99.90;;;;;;5033398;28;20044;-65
2022/06/04 05:17:02;;;;;;;6.13;3.30;;;15.60;99.90;;;;;;5033319;28;20541;-65
2022/06/04 05:19:28;;;;;;;4.72;3.15;;;15.70;99.90;;;;;;5051394;28;20037;-64
2022/06/04 05:21:55;;;;;;;6.03;3.33;;;16.10;99.90;;;;;;5033545;28;20053;-65
2022/06/04 05:24:29;;;;;;;7.57;2.90;;;17.50;99.90;;;;;;5051299;28;20048;-65
2022/06/04 05:26:56;;;;;;;4.95;2.97;;;16.80;99.90;;;;;;5051498;28;20068;-65
2022/06/04 05:29:22;;;;;;;6.45;3.00;;;17.10;99.90;;;;;;5033200;28;20057;-64
2022/06/04 05:31:50;;;;;;;9.70;2.60;;;17.30;99.90;;;;;;5051231;28;20506;-65
2022/06/04 05:34:18;;;;;;;5.38;2.40;;;17.50;99.90;;;;;;5051276;28;20371;-64
2022/06/04 05:36:45;;;;;;;9.07;2.88;;;17.80;99.90;;;;;;5032702;28;20110;-65
2022/06/04 05:39:12;;;;;;;5.00;2.22;;;18.90;99.90;;;;;;5022767;28;20056;-64
2022/06/04 05:41:38;;;;;;;5.32;2.17;;;18.30;99.90;;;;;;5040195;28;20046;-64
2022/06/04 05:44:05;;;;;;;4.75;2.30;;;19.30;99.90;;;;;;5020792;28;20053;-64
2022/06/04 05:46:31;;;;;;;4.82;2.45;;;18.20;99.90;;;;;;5036207;28;20045;-64
2022/06/04 05:48:56;;;;;;;5.13;2.40;;;18.10;99.90;;;;;;5034509;28;20046;-64
2022/06/04 05:51:25;;;;;;;4.05;1.95;;;17.80;99.90;;;;;;5012556;28;20064;-63
2022/06/04 05:53:51;;;;;;;3.75;2.13;;;17.50;99.90;;;;;;5032737;28;20052;-64
2022/06/04 05:56:20;;;;;;;7.82;3.10;;;17.50;99.90;;;;;;5030614;28;20056;-64
2022/06/04 05:58:47;;;;;;;3.67;2.00;;;17.70;99.90;;;;;;5012426;28;20045;-63
2022/06/04 06:01:14;;;;;;;5.80;2.35;;;17.30;99.90;;;;;;5014988;28;20194;-64
2022/06/04 06:03:40;;;;;;;4.78;2.63;;;17.00;99.90;;;;;;5015198;28;20135;-64
2022/06/04 06:06:12;;;;;;;5.90;2.65;;;17.20;99.90;;;;;;5030983;28;20115;-64
2022/06/04 06:08:38;;;;;;;6.72;2.83;;;18.40;99.90;;;;;;5013347;28;20102;-65
2022/06/04 06:11:07;;;;;;;5.95;2.60;;;16.70;99.90;;;;;;5035192;28;20037;-64
2022/06/04 06:13:32;;;;;;;4.32;2.30;;;16.30;99.90;;;;;;5022888;28;20041;-64
2022/06/04 06:16:07;;;;;;;5.90;2.65;;;16.40;99.90;;;;;;5004658;28;20046;-64
2022/06/04 06:18:34;;;;;;;4.32;2.53;;;16.00;99.90;;;;;;5023206;28;20527;-64
2022/06/04 06:21:11;;;;;;;8.25;2.80;;;17.80;99.90;;;;;;5024039;28;20055;-64
2022/06/04 06:23:37;;;;;;;4.43;2.38;;;16.20;99.90;;;;;;5034278;28;20044;-64
2022/06/04 06:26:15;;;;;;;7.68;2.72;;;16.50;99.90;;;;;;5042891;28;20430;-64
2022/06/04 06:28:42;;;;;;;7.95;3.10;;;16.60;99.90;;;;;;5043031;28;20470;-64
2022/06/04 06:31:09;;;;;;;5.72;2.80;;;18.20;99.90;;;;;;5043283;28;20033;-64
2022/06/04 06:33:35;;;;;;;5.45;2.47;;;17.50;99.90;;;;;;5043362;28;20517;-64
2022/06/04 06:36:04;;;;;;;5.28;2.83;;;18.00;99.90;;;;;;5025436;28;20045;-64
2022/06/04 06:38:31;;;;;;;4.70;2.10;;;17.10;99.90;;;;;;5036005;28;20037;-65
2022/06/04 06:40:57;;;;;;;6.28;2.85;;;16.90;99.90;;;;;;5023938;28;20051;-63
2022/06/04 06:43:33;;;;;;;6.65;2.95;;;16.80;99.90;;;;;;5023867;28;20059;-63
2022/06/04 06:46:18;;;;;;;6.05;3.03;;;16.70;99.90;;;;;;5041357;28;20487;-63
2022/06/04 06:48:45;;;;;;;6.33;3.20;;;18.10;99.90;;;;;;5040821;28;20410;-63
2022/06/04 06:51:23;;;;;;;5.10;3.47;;;16.50;99.90;;;;;;5022934;28;20044;-63
2022/06/04 06:53:49;;;;;;;5.47;3.20;;;16.50;99.90;;;;;;5022860;28;20049;-63
2022/06/04 06:56:20;;;;;;;4.75;3.05;;;16.50;99.90;;;;;;5022455;28;20275;-63
2022/06/04 06:58:46;;;;;;;8.20;3.55;;;16.50;99.90;;;;;;5041031;28;20697;-63
2022/06/04 07:01:13;;;;;;;5.88;3.13;;;16.70;99.90;;;;;;5022422;28;20053;-63
2022/06/04 07:03:40;;;;;;;15.93;4.13;;;18.30;99.90;;;;;;5037847;28;20468;-63
2022/06/04 07:06:08;;;;;;;6.38;3.85;;;16.50;99.90;;;;;;5037118;28;20052;-62
2022/06/04 07:08:35;;;;;;;7.93;3.78;;;16.50;99.90;;;;;;4998808;28;20168;-62
2022/06/04 07:11:01;;;;;;;4.97;3.55;;;16.50;99.90;;;;;;5014677;28;20049;-63
2022/06/04 07:13:27;;;;;;;9.90;4.40;;;16.50;99.90;;;;;;5027331;28;20044;-63
2022/06/04 07:15:52;;;;;;;7.35;3.42;;;16.80;99.90;;;;;;5010873;28;20175;-63
2022/06/04 07:18:19;;;;;;;5.97;3.85;;;16.70;99.90;;;;;;5024288;28;20045;-63
2022/06/04 07:20:45;;;;;;;5.82;3.42;;;16.60;99.90;;;;;;5044298;28;20116;-64
2022/06/04 07:23:11;;;;;;;6.70;3.53;;;17.20;99.90;;;;;;5043436;28;20518;-64
2022/06/04 07:25:40;;;;;;;7.10;2.97;;;16.60;99.90;;;;;;5043167;28;20419;-64
2022/06/04 07:28:06;;;;;;;7.18;4.00;;;16.60;99.90;;;;;;5043486;28;20045;-64
2022/06/04 07:30:31;;;;;;;7.82;4.30;;;16.50;99.90;;;;;;5024900;28;20048;-63
2022/06/04 07:32:58;;;;;;;12.75;4.43;;;16.60;99.90;;;;;;5025438;28;20410;-63
2022/06/04 07:35:24;;;;;;;7.43;3.72;;;17.60;99.90;;;;;;5026467;28;20045;-64
2022/06/04 07:37:49;;;;;;;7.20;3.85;;;16.60;99.90;;;;;;5029471;28;20048;-63
2022/06/04 07:40:15;;;;;;;7.22;4.38;;;18.20;99.90;;;;;;5029504;28;20554;-63
2022/06/04 07:42:42;;;;;;;6.13;3.83;;;16.50;99.90;;;;;;5047727;28;20491;-63
2022/06/04 07:45:08;;;;;;;6.60;3.70;;;16.70;99.90;;;;;;5047382;28;20049;-64
2022/06/04 07:47:34;;;;;;;4.68;3.53;;;16.80;99.90;;;;;;5029063;28;20123;-64
2022/06/04 07:50:00;;;;;;;9.18;3.78;;;16.80;99.90;;;;;;5031867;28;20456;-64
2022/06/04 07:52:26;;;;;;;8.95;4.00;;;17.00;99.90;;;;;;5040918;28;20111;-63
2022/06/04 07:54:52;;;;;;;5.43;4.15;;;17.70;99.90;;;;;;5016509;28;20128;-64
2022/06/04 07:57:18;;;;;;;6.38;4.22;;;17.00;99.90;;;;;;5050972;28;20068;-63
2022/06/04 07:59:43;;;;;;;8.27;3.85;;;16.90;99.90;;;;;;5050348;28;20068;-64
2022/06/04 08:02:13;;;;;;;20.40;4.15;;;17.00;99.90;;;;;;5041396;28;20111;-63
2022/06/04 08:04:39;;;;;;;7.82;3.75;;;17.20;99.90;;;;;;5028258;28;20044;-63
2022/06/04 08:07:05;;;;;;;6.15;4.00;;;17.90;99.90;;;;;;5045919;28;20021;-63
2022/06/04 08:09:32;;;;;;;6.40;3.95;;;17.00;99.90;;;;;;5030374;28;20615;-64
2022/06/04 08:11:58;;;;;;;9.07;3.58;;;16.90;99.90;;;;;;5050686;28;20037;-63
2022/06/04 08:14:25;;;;;;;5.30;3.15;;;18.00;99.90;;;;;;5032320;28;20106;-63
2022/06/04 08:16:59;;;;;;;6.95;3.63;;;16.90;99.90;;;;;;5032720;28;20059;-64
2022/06/04 08:19:27;;;;;;;4.05;3.03;;;16.90;99.90;;;;;;5032822;28;20103;-63
2022/06/04 08:21:53;;;;;;;6.32;3.67;;;17.10;99.90;;;;;;5032405;28;20063;-64
2022/06/04 08:24:20;;;;;;;3.72;2.53;;;17.10;99.90;;;;;;5050528;28;20506;-64
2022/06/04 08:26:48;;;;;;;4.47;3.25;;;17.20;99.90;;;;;;5050522;28;20037;-64
2022/06/04 08:29:15;;;;;;;4.50;3.47;;;16.80;99.90;;;;;;5050742;28;20095;-64
2022/06/04 08:31:41;;;;;;;4.65;3.38;;;16.90;99.90;;;;;;5050522;28;20032;-64
2022/06/04 08:34:07;;;;;;;7.43;3.35;;;16.90;99.90;;;;;;5050403;28;20055;-63
2022/06/04 08:36:33;;;;;;;7.90;3.30;;;16.80;99.90;;;;;;5032165;28;20041;-63
2022/06/04 08:39:00;;;;;;;6.88;3.55;;;17.10;99.90;;;;;;5050837;28;20098;-64
2022/06/04 08:41:50;;;;;;;4.45;3.53;;;17.00;99.90;;;;;;5032349;28;20087;-64
2022/06/04 08:44:21;;;;;;;5.50;3.13;;;17.00;99.90;;;;;;5015982;28;20056;-64
2022/06/04 08:46:54;;;;;;;9.43;3.35;;;17.10;99.90;;;;;;5032012;28;20091;-64
2022/06/04 08:49:31;;;;;;;5.93;4.10;;;17.10;99.90;;;;;;5050528;28;20132;-64
2022/06/04 08:52:08;;;;;;;8.70;3.78;;;17.00;99.90;;;;;;5032315;28;20045;-63
2022/06/04 08:57:35;;;;;;;8.10;3.78;;;17.00;99.90;;;;;;5049010;28;20060;-63
2022/06/04 09:00:04;;;;;;;7.97;3.60;;;17.50;99.90;;;;;;5032439;28;20075;-62
2022/06/04 09:02:52;;;;;;;5.60;3.58;;;17.30;99.90;;;;;;5029923;28;20426;-63
2022/06/04 09:05:40;;;;;;;5.60;3.60;;;17.40;99.90;;;;;;5043523;28;20462;-64
2022/06/04 09:08:19;;;;;;;7.85;3.42;;;17.70;99.90;;;;;;5023949;28;20041;-64
2022/06/04 09:10:53;;;;;;;6.28;3.55;;;17.80;99.90;;;;;;5044400;28;20049;-64
2022/06/04 09:13:35;;;;;;;5.30;3.33;;;18.30;99.90;;;;;;5019154;28;20507;-64
2022/06/04 09:16:12;;;;;;;3.97;3.17;;;18.20;99.90;;;;;;5024644;28;20160;-64
2022/06/04 09:18:37;;;;;;;6.25;3.08;;;18.10;99.90;;;;;;5034703;28;20033;-65
2022/06/04 09:21:09;;;;;;;5.88;2.90;;;19.80;99.90;;;;;;5045495;28;20174;-64
2022/06/04 09:23:34;;;;;;;7.80;2.80;;;18.40;99.90;;;;;;5027463;28;20533;-64
2022/06/04 09:26:06;;;;;;;5.75;3.45;;;18.40;99.90;;;;;;5044856;28;20048;-65
2022/06/04 09:28:44;;;;;;;5.45;3.50;;;18.50;99.90;;;;;;5025468;28;20044;-65
2022/06/04 09:31:35;;;;;;;5.57;2.63;;;18.40;99.90;;;;;;5027398;28;20077;-65
2022/06/04 09:34:13;;;;;;;6.60;3.38;;;18.50;99.90;;;;;;5010687;28;20049;-65
2022/06/04 09:36:42;;;;;;;14.55;3.50;;;18.60;99.90;;;;;;5028592;28;20056;-64
2022/06/04 09:39:20;;;;;;;6.65;3.45;;;19.70;99.90;;;;;;5027697;28;20570;-64
2022/06/04 09:41:51;;;;;;;5.00;3.22;;;18.50;99.90;;;;;;5027807;28;20045;-64
2022/06/04 09:44:17;;;;;;;4.05;3.05;;;19.70;99.90;;;;;;5028126;28;20110;-64
2022/06/04 09:46:44;;;;;;;5.55;3.17;;;18.10;99.90;;;;;;5041382;28;20037;-64
2022/06/04 09:49:35;;;;;;;7.47;3.10;;;18.30;99.90;;;;;;5024688;28;20460;-65
2022/06/04 09:52:25;;;;;;;5.15;3.08;;;18.20;99.90;;;;;;5013485;28;20565;-64
2022/06/04 09:55:00;;;;;;;4.72;2.90;;;18.00;99.90;;;;;;5013599;28;20556;-64
2022/06/04 09:57:29;;;;;;;6.20;3.22;;;17.90;99.90;;;;;;5045495;28;20057;-64
2022/06/04 09:59:57;;;;;;;5.35;2.80;;;17.90;99.90;;;;;;5031060;28;20071;-65
2022/06/04 10:02:23;;;;;;;4.47;2.88;;;17.80;99.90;;;;;;5031377;28;20499;-64
2022/06/04 10:04:59;;;;;;;6.50;3.00;;;17.90;99.90;;;;;;5043448;28;20159;-63
2022/06/04 10:07:34;;;;;;;7.07;3.97;;;17.90;99.90;;;;;;5052014;28;20045;-63
2022/06/04 10:10:08;;;;;;;5.65;3.08;;;18.10;99.90;;;;;;5031645;28;20445;-63
2022/06/04 10:15:45;;;;;;;4.97;3.13;;;18.50;99.90;;;;;;5036390;28;20119;-63
2022/06/04 10:18:30;;;;;;;5.40;3.10;;;18.70;99.90;;;;;;5036039;28;20064;-63
2022/06/04 10:21:17;;;;;;;4.47;2.58;;;18.60;99.90;;;;;;5029921;28;20048;-63
2022/06/04 10:23:48;;;;;;;4.30;2.80;;;18.60;99.90;;;;;;5030751;28;20059;-63
2022/06/04 10:26:38;;;;;;;5.03;2.75;;;19.00;99.90;;;;;;5053436;28;20108;-63
2022/06/04 10:29:26;;;;;;;7.55;3.15;;;19.20;99.90;;;;;;5043698;28;20044;-63
2022/06/04 10:31:55;;;;;;;9.25;3.75;;;19.00;99.90;;;;;;5053322;28;20256;-63
2022/06/04 10:34:42;;;;;;;4.95;2.67;;;19.00;99.90;;;;;;5045625;28;20065;-63
2022/06/04 10:37:33;;;;;;;9.18;3.35;;;19.00;99.90;;;;;;5049087;28;20041;-63
2022/06/04 10:40:22;;;;;;;5.10;2.85;;;19.10;99.90;;;;;;5035837;28;20083;-63
2022/06/04 10:43:05;;;;;;;6.22;3.13;;;19.10;99.90;;;;;;5045876;28;20041;-63
2022/06/04 10:45:41;;;;;;;6.78;3.13;;;19.10;99.90;;;;;;5035233;28;20499;-63
2022/06/04 10:48:43;;;;;;;7.70;3.00;;;19.30;99.90;;;;;;5053634;28;20041;-63
2022/06/04 10:51:27;;;;;;;5.13;2.83;;;19.30;99.90;;;;;;5034726;28;20114;-63
2022/06/04 10:53:59;;;;;;;3.95;2.80;;;19.30;99.90;;;;;;5053529;28;20094;-63
2022/06/04 10:56:44;;;;;;;5.68;2.50;;;19.50;99.90;;;;;;5027180;28;20052;-63
2022/06/04 10:59:18;;;;;;;;;;;19.20;99.90;;;;;;5048825;28;20497;-64
2022/06/04 11:01:52;;;;;;;6.82;2.72;;;19.50;99.90;;;;;;5035283;28;19924;-63
2022/06/04 11:04:46;;;;;;;4.97;2.90;;;19.50;99.90;;;;;;5053221;28;20044;-63
2022/06/04 11:07:52;;;;;;;3.67;2.50;;;19.60;99.90;;;;;;5053304;28;20076;-63
2022/06/04 11:10:28;;;;;;;6.40;2.80;;;19.60;99.90;;;;;;5025086;28;20051;-63
2022/06/04 11:13:04;;;;;;;5.35;2.78;;;19.70;99.90;;;;;;5053178;28;20033;-63
2022/06/04 11:15:37;;;;;;;3.92;2.80;;;19.70;99.90;;;;;;5052935;28;20072;-63
2022/06/04 11:18:12;;;;;;;5.68;2.88;;;19.90;99.90;;;;;;5035077;28;20033;-63
2022/06/04 11:20:52;;;;;;;7.13;3.55;;;19.70;99.90;;;;;;5034881;28;20124;-63
2022/06/04 11:23:24;;;;;;;5.35;2.42;;;19.50;99.90;;;;;;5053131;28;20087;-63
2022/06/04 11:25:56;;;;;;;4.15;2.63;;;19.80;99.90;;;;;;5035143;28;20441;-64
2022/06/04 11:28:26;;;;;;;5.82;2.20;;;21.10;99.90;;;;;;5053054;28;20033;-63
2022/06/04 11:31:22;;;;;;;3.65;2.10;;;21.30;99.90;;;;;;5052725;28;20470;-63
2022/06/04 11:33:53;;;;;;;6.68;2.42;;;19.40;99.90;;;;;;5040518;28;20069;-63
2022/06/04 11:36:51;;;;;;;3.88;2.40;;;19.60;99.90;;;;;;5052549;28;20037;-63
2022/06/04 11:39:32;;;;;;;4.60;2.15;;;19.40;99.90;;;;;;5052694;28;20048;-63
2022/06/04 11:42:15;;;;;;;3.28;2.15;;;19.30;99.90;;;;;;5052485;28;20048;-63
2022/06/04 11:44:59;;;;;;;8.00;2.75;;;19.20;99.90;;;;;;5052694;28;20036;-63
2022/06/04 11:47:24;;;;;;;3.28;2.05;;;19.40;99.90;;;;;;5033212;28;20091;-63
2022/06/04 11:49:59;;;;;;;5.30;2.15;;;19.60;99.90;;;;;;5052196;28;20041;-63
2022/06/04 11:52:35;;;;;;;;;;;19.40;99.90;;;;;;5034848;28;20033;-63
2022/06/04 11:55:19;;;;;;;3.42;2.38;;;19.50;99.90;;;;;;5034642;28;20386;-64
2022/06/04 11:58:16;;;;;;;5.73;2.50;;;19.60;99.90;;;;;;5018210;28;20041;-63
2022/06/04 12:00:45;;;;;;;5.00;2.40;;;19.60;99.90;;;;;;5052366;28;20410;-63
2022/06/04 12:03:36;;;;;;;4.65;2.85;;;19.50;99.90;;;;;;5052244;28;20116;-63
2022/06/04 12:06:06;;;;;;;3.30;2.58;;;19.50;99.90;;;;;;5034254;28;20104;-63
2022/06/04 12:08:40;;;;;;;3.45;2.70;;;19.50;99.90;;;;;;5034283;28;20040;-63
2022/06/04 12:11:54;;;;;;;3.35;2.22;;;19.60;99.90;;;;;;5052106;28;20134;-64
2022/06/04 12:14:20;;;;;;;5.28;2.53;;;19.70;99.90;;;;;;5046957;28;20053;-63
2022/06/04 12:17:10;;;;;;;6.80;2.75;;;19.70;99.90;;;;;;5052056;28;20106;-63
2022/06/04 12:26:34;;;;;;;4.50;2.60;;;19.80;99.90;;;;;;5033933;28;20056;-63
2022/06/04 12:29:02;;;;;;;3.90;2.20;;;20.10;99.90;;;;;;5051957;28;20041;-63
2022/06/04 12:31:36;;;;;;;12.15;3.22;;;20.80;99.90;;;;;;5051899;28;20175;-63
2022/06/04 12:34:42;;;;;;;3.17;1.85;;;20.20;99.90;;;;;;5051778;28;20050;-63
2022/06/04 12:37:28;;;;;;;6.68;2.38;;;20.10;99.90;;;;;;5020734;28;20514;-63
2022/06/04 12:39:55;;;;;;;5.78;2.65;;;20.40;99.90;;;;;;5033557;28;20059;-63
2022/06/04 12:42:26;;;;;;;5.28;2.30;;;20.90;99.90;;;;;;5033597;28;20055;-63
2022/06/04 12:45:33;;;;;;;7.88;2.67;;;20.20;99.90;;;;;;5052727;28;20052;-63
2022/06/04 12:47:58;;;;;;;4.53;2.25;;;20.40;99.90;;;;;;5055906;28;20037;-63
2022/06/04 12:50:33;;;;;;;4.57;2.33;;;21.00;99.90;;;;;;5037518;28;20040;-63
2022/06/04 12:53:20;;;;;;;6.82;2.72;;;19.90;99.90;;;;;;5037911;28;20045;-63
2022/06/04 12:55:55;;;;;;;3.08;2.05;;;19.90;99.90;;;;;;5041914;28;20048;-63
2022/06/04 12:58:34;;;;;;;6.00;2.70;;;19.90;99.90;;;;;;5037826;28;20069;-64
2022/06/04 13:01:18;;;;;;;4.03;2.45;;;20.40;99.90;;;;;;5042872;28;20041;-63
2022/06/04 13:03:47;;;;;;;4.85;2.83;;;21.20;99.90;;;;;;5055525;28;20049;-63
2022/06/04 13:06:12;;;;;;;6.32;3.45;;;21.50;99.90;;;;;;5054146;28;20087;-63
2022/06/04 13:08:46;;;;;;;7.18;2.95;;;19.80;99.90;;;;;;5055612;28;20044;-63
2022/06/04 13:11:30;;;;;;;4.65;3.00;;;21.40;99.90;;;;;;5055399;28;20465;-63
2022/06/04 13:14:14;;;;;;;4.28;3.10;;;20.00;99.90;;;;;;5037623;28;20049;-63
2022/06/04 13:16:52;;;;;;;6.10;3.08;;;19.80;99.90;;;;;;5041797;28;20087;-63
2022/06/04 13:19:43;;;;;;;5.28;3.35;;;19.80;99.90;;;;;;5037460;28;20099;-63
2022/06/04 13:22:32;;;;;;;5.90;2.90;;;19.50;99.90;;;;;;5044655;28;20044;-63
2022/06/04 13:25:00;;;;;;;6.40;3.10;;;19.50;99.90;;;;;;5055207;28;20045;-63
2022/06/04 13:27:50;;;;;;;5.90;3.38;;;19.70;99.90;;;;;;5037312;28;20037;-63
2022/06/04 13:30:17;;;;;;;5.57;3.05;;;19.50;99.90;;;;;;5033596;28;20053;-63
2022/06/04 13:32:43;;;;;;;6.22;2.72;;;20.70;99.90;;;;;;5047864;28;20041;-63
2022/06/04 13:35:17;;;;;;;6.47;3.30;;;19.40;99.90;;;;;;5055140;28;20394;-63